Time;durP1;ratioP1;P1;durP2;ratioP2;P2;SDS_P1;SDS_P2;PMS_P1;PMS_P2;Temp;Humidity;BMP_temperature;BMP_pressure;BME280_temperature;BME280_humidity;BME280_pressure;Samples;Min_cycle;Max_cycle;Signal;HPM_P1;HPM_P2
2021/07/31 00:00:37;;;;;;;7.30;6.70;;;24.10;1.00;;;;;;5127077;27;20181;-57
2021/07/31 00:03:02;;;;;;;6.93;6.23;;;22.40;1.00;;;;;;5125990;27;20189;-59
2021/07/31 00:05:28;;;;;;;9.00;6.73;;;22.30;1.00;;;;;;5132927;27;20247;-57
2021/07/31 00:07:53;;;;;;;6.13;5.53;;;22.30;1.00;;;;;;5128353;27;20260;-57
2021/07/31 00:10:19;;;;;;;6.30;5.80;;;22.30;1.00;;;;;;5134377;27;20177;-59
2021/07/31 00:12:44;;;;;;;6.40;5.80;;;22.30;1.00;;;;;;5130715;27;20193;-56
2021/07/31 00:15:10;;;;;;;6.47;5.87;;;22.20;1.00;;;;;;5129269;27;20258;-57
2021/07/31 00:17:36;;;;;;;7.50;6.10;;;22.30;1.00;;;;;;5127951;27;20562;-56
2021/07/31 00:20:01;;;;;;;11.60;6.37;;;22.30;1.00;;;;;;5124862;27;20238;-58
2021/07/31 00:22:27;;;;;;;9.90;6.47;;;22.40;1.00;;;;;;5129308;27;20193;-57
2021/07/31 00:24:52;;;;;;;6.20;5.60;;;22.50;1.00;;;;;;5125988;27;20193;-58
2021/07/31 00:27:18;;;;;;;6.63;5.93;;;22.50;1.00;;;;;;5128657;27;20209;-55
2021/07/31 00:29:43;;;;;;;6.77;6.17;;;22.50;1.00;;;;;;5129840;27;20647;-56
2021/07/31 00:32:11;;;;;;;7.70;5.83;;;22.60;1.00;;;;;;5123983;27;20200;-57
2021/07/31 00:34:36;;;;;;;6.43;5.93;;;22.60;1.00;;;;;;5109501;27;20643;-57
2021/07/31 00:37:02;;;;;;;9.80;6.60;;;22.70;1.00;;;;;;5128909;27;20451;-58
2021/07/31 00:39:28;;;;;;;7.03;6.33;;;22.60;1.00;;;;;;5129710;27;20194;-57
2021/07/31 00:41:54;;;;;;;6.27;5.77;;;22.60;1.00;;;;;;5126457;27;20542;-56
2021/07/31 00:44:19;;;;;;;6.73;5.70;;;22.60;1.00;;;;;;5128809;27;20174;-58
2021/07/31 00:46:45;;;;;;;7.40;6.70;;;22.60;1.00;;;;;;5128978;27;20304;-58
2021/07/31 00:49:10;;;;;;;6.80;6.20;;;22.60;1.00;;;;;;5126160;27;20761;-57
2021/07/31 00:51:36;;;;;;;6.33;5.83;;;22.60;1.00;;;;;;5125661;27;20546;-57
2021/07/31 00:54:02;;;;;;;7.27;6.50;;;22.60;1.00;;;;;;5127375;27;20216;-57
2021/07/31 00:56:28;;;;;;;7.27;6.67;;;23.00;1.00;;;;;;5129542;27;20225;-57
2021/07/31 00:58:53;;;;;;;6.50;5.90;;;23.10;1.00;;;;;;5129325;27;20189;-58
2021/07/31 01:01:19;;;;;;;7.27;6.57;;;23.30;1.00;;;;;;5133061;27;20439;-57
2021/07/31 01:03:46;;;;;;;7.20;5.90;;;23.30;1.00;;;;;;5131930;27;20194;-56
2021/07/31 01:06:12;;;;;;;6.23;5.63;;;23.20;1.00;;;;;;5131824;27;20212;-58
2021/07/31 01:08:37;;;;;;;7.30;6.47;;;23.30;1.00;;;;;;5111907;27;20451;-58
2021/07/31 01:11:04;;;;;;;6.37;5.70;;;23.30;1.00;;;;;;5131710;27;20685;-56
2021/07/31 01:13:30;;;;;;;6.00;5.50;;;23.40;1.00;;;;;;5129609;27;20284;-58
2021/07/31 01:16:02;;;;;;;6.77;6.07;;;23.50;1.00;;;;;;5131320;27;20454;-59
2021/07/31 01:18:27;;;;;;;7.90;5.90;;;23.40;1.00;;;;;;5129250;27;20530;-58
2021/07/31 01:20:53;;;;;;;6.40;5.80;;;23.40;1.00;;;;;;5129800;27;21030;-58
2021/07/31 01:23:19;;;;;;;7.43;6.70;;;23.30;1.00;;;;;;5114025;27;20689;-58
2021/07/31 01:25:45;;;;;;;6.30;5.73;;;23.30;1.00;;;;;;5129426;27;20744;-57
2021/07/31 01:28:11;;;;;;;6.33;5.73;;;23.40;1.00;;;;;;5131802;27;20431;-57
2021/07/31 01:30:36;;;;;;;6.83;6.13;;;23.10;1.00;;;;;;5130506;27;20560;-57
2021/07/31 01:33:02;;;;;;;6.97;6.37;;;23.10;1.00;;;;;;5112591;27;20214;-56
2021/07/31 01:35:27;;;;;;;6.13;5.63;;;23.10;1.00;;;;;;5132302;27;20189;-58
2021/07/31 01:37:53;;;;;;;6.70;6.10;;;23.30;1.00;;;;;;5132147;27;20174;-56
2021/07/31 01:40:18;;;;;;;7.10;6.40;;;23.30;1.00;;;;;;5132655;27;20182;-56
2021/07/31 01:42:44;;;;;;;10.87;6.23;;;23.30;1.00;;;;;;5131288;27;20193;-56
2021/07/31 01:45:10;;;;;;;7.17;6.47;;;23.20;1.00;;;;;;5128050;27;20258;-57
2021/07/31 01:47:36;;;;;;;7.77;5.47;;;23.30;1.00;;;;;;5132594;27;20178;-56
2021/07/31 01:50:01;;;;;;;7.50;5.97;;;23.10;1.00;;;;;;5129433;27;20492;-57
2021/07/31 01:52:27;;;;;;;6.30;5.77;;;23.30;1.00;;;;;;5131265;27;20221;-58
2021/07/31 01:54:53;;;;;;;7.00;6.20;;;23.30;1.00;;;;;;5131745;27;20177;-58
2021/07/31 01:57:18;;;;;;;7.17;6.47;;;23.30;1.00;;;;;;5130511;27;20189;-56
2021/07/31 01:59:44;;;;;;;6.17;5.63;;;23.20;1.00;;;;;;5128965;27;20309;-56
2021/07/31 02:02:09;;;;;;;7.03;6.33;;;23.20;1.00;;;;;;5136766;27;20184;-57
2021/07/31 02:04:35;;;;;;;7.10;6.50;;;23.30;1.00;;;;;;5130513;27;20228;-57
2021/07/31 02:07:01;;;;;;;7.83;6.57;;;23.30;1.00;;;;;;5128694;27;20224;-57
2021/07/31 02:09:27;;;;;;;7.87;6.00;;;23.30;1.00;;;;;;5129797;27;20638;-58
2021/07/31 02:11:53;;;;;;;6.10;5.50;;;23.20;1.00;;;;;;5130300;27;20435;-57
2021/07/31 02:14:19;;;;;;;7.37;5.63;;;23.20;1.00;;;;;;5128957;27;20435;-58
2021/07/31 02:16:44;;;;;;;6.90;5.60;;;23.20;1.00;;;;;;5130601;27;20249;-57
2021/07/31 02:19:10;;;;;;;6.83;6.17;;;23.20;1.00;;;;;;5129353;27;20320;-57
2021/07/31 02:21:36;;;;;;;7.50;6.00;;;23.20;1.00;;;;;;5126020;27;20245;-57
2021/07/31 02:24:02;;;;;;;6.43;5.83;;;23.20;1.00;;;;;;5130158;27;20525;-55
2021/07/31 02:26:27;;;;;;;6.47;5.87;;;23.20;1.00;;;;;;5129007;27;20286;-57
2021/07/31 02:28:53;;;;;;;7.43;6.70;;;23.10;1.00;;;;;;5130831;27;20186;-56
2021/07/31 02:31:18;;;;;;;7.40;6.27;;;23.10;1.00;;;;;;5129641;27;20178;-56
2021/07/31 02:33:44;;;;;;;6.50;5.57;;;23.00;1.00;;;;;;5127528;27;20198;-58
2021/07/31 02:36:10;;;;;;;6.23;5.63;;;23.00;1.00;;;;;;5130865;27;20204;-55
2021/07/31 02:38:37;;;;;;;5.93;5.27;;;23.20;1.00;;;;;;5130316;27;20207;-57
2021/07/31 02:41:03;;;;;;;6.17;5.57;;;23.30;1.00;;;;;;5139963;27;20689;-57
2021/07/31 02:43:28;;;;;;;7.03;5.57;;;23.30;1.00;;;;;;5129383;27;20472;-57
2021/07/31 02:45:54;;;;;;;8.33;5.53;;;23.40;1.00;;;;;;5134332;27;20500;-58
2021/07/31 02:48:20;;;;;;;6.77;5.80;;;23.30;1.00;;;;;;5132244;27;20181;-56
2021/07/31 02:50:46;;;;;;;6.57;5.97;;;23.30;1.00;;;;;;5130187;27;20430;-56
2021/07/31 02:53:11;;;;;;;6.63;5.90;;;23.30;1.00;;;;;;5129081;27;20217;-58
2021/07/31 02:55:37;;;;;;;5.97;5.40;;;23.10;1.00;;;;;;5128602;27;20499;-56
2021/07/31 02:58:03;;;;;;;6.73;5.53;;;23.30;1.00;;;;;;5109747;27;20222;-58
2021/07/31 03:00:28;;;;;;;6.73;5.70;;;23.30;1.00;;;;;;5128405;27;20189;-57
2021/07/31 03:02:54;;;;;;;6.03;5.50;;;23.20;1.00;;;;;;5128042;27;20190;-56
2021/07/31 03:05:19;;;;;;;6.83;6.23;;;23.30;1.00;;;;;;5129371;27;20232;-56
2021/07/31 03:07:45;;;;;;;8.13;6.80;;;23.40;1.00;;;;;;5125148;27;20553;-57
2021/07/31 03:10:12;;;;;;;7.13;6.20;;;23.40;1.00;;;;;;5127833;27;20180;-57
2021/07/31 03:12:38;;;;;;;7.17;5.90;;;23.40;1.00;;;;;;5129054;27;20165;-57
2021/07/31 03:15:04;;;;;;;6.40;5.80;;;23.40;1.00;;;;;;5131193;27;20450;-57
2021/07/31 03:17:30;;;;;;;6.23;5.73;;;23.50;1.00;;;;;;5130366;27;20189;-58
2021/07/31 03:19:55;;;;;;;5.63;5.13;;;23.40;1.00;;;;;;5128828;27;20495;-56
2021/07/31 03:22:21;;;;;;;6.60;6.00;;;23.40;1.00;;;;;;5127097;27;20188;-56
2021/07/31 03:24:46;;;;;;;6.50;5.90;;;23.40;1.00;;;;;;5126964;27;20209;-56
2021/07/31 03:27:12;;;;;;;6.97;6.03;;;23.40;1.00;;;;;;5129634;27;20218;-57
2021/07/31 03:29:37;;;;;;;7.77;5.20;;;23.40;1.00;;;;;;5131597;27;20499;-57
2021/07/31 03:32:03;;;;;;;5.93;5.40;;;23.40;1.00;;;;;;5139167;27;20169;-57
2021/07/31 03:34:30;;;;;;;5.90;5.40;;;23.30;1.00;;;;;;5132169;27;20177;-57
2021/07/31 03:36:56;;;;;;;6.50;5.90;;;23.20;1.00;;;;;;5130940;27;21019;-57
2021/07/31 03:39:22;;;;;;;6.03;5.53;;;23.20;1.00;;;;;;5126041;27;20443;-58
2021/07/31 03:41:54;;;;;;;4.70;4.30;;;23.30;1.00;;;;;;5127260;27;20250;-58
2021/07/31 03:44:19;;;;;;;4.97;4.57;;;23.30;1.00;;;;;;5140525;27;20537;-56
2021/07/31 03:46:46;;;;;;;9.90;5.10;;;23.30;1.00;;;;;;5128942;27;20549;-56
2021/07/31 03:49:12;;;;;;;5.70;5.20;;;23.30;1.00;;;;;;5127123;27;20178;-56
2021/07/31 03:51:38;;;;;;;5.47;4.97;;;23.40;1.00;;;;;;5128687;27;20435;-56
2021/07/31 03:54:04;;;;;;;5.70;5.17;;;23.40;1.00;;;;;;5130297;27;20487;-57
2021/07/31 03:56:30;;;;;;;5.70;5.00;;;23.50;1.00;;;;;;5129911;27;20459;-56
2021/07/31 03:58:55;;;;;;;5.10;4.70;;;23.50;1.00;;;;;;5125618;27;20201;-57
2021/07/31 04:01:23;;;;;;;5.80;5.20;;;23.40;1.00;;;;;;5126417;27;20193;-57
2021/07/31 04:03:48;;;;;;;6.30;5.00;;;23.40;1.00;;;;;;5129578;27;20534;-55
2021/07/31 04:06:14;;;;;;;6.47;5.60;;;23.50;1.00;;;;;;5128232;27;20470;-57
2021/07/31 04:08:40;;;;;;;6.00;5.10;;;23.40;1.00;;;;;;5128666;27;20177;-56
2021/07/31 04:11:05;;;;;;;5.83;5.33;;;23.50;1.00;;;;;;5129548;27;20177;-56
2021/07/31 04:13:31;;;;;;;5.57;5.00;;;23.40;1.00;;;;;;5128109;27;20216;-56
2021/07/31 04:15:56;;;;;;;9.07;5.30;;;23.40;1.00;;;;;;5108694;27;20180;-56
2021/07/31 04:18:22;;;;;;;6.47;5.87;;;23.40;1.00;;;;;;5129736;27;20181;-56
2021/07/31 04:20:47;;;;;;;6.10;5.50;;;23.40;1.00;;;;;;5127121;27;20186;-56
2021/07/31 04:23:13;;;;;;;5.23;4.73;;;23.40;1.00;;;;;;5130370;27;20192;-57
2021/07/31 04:25:38;;;;;;;7.27;5.93;;;23.40;1.00;;;;;;5129044;27;20573;-57
2021/07/31 04:28:05;;;;;;;5.80;5.30;;;23.40;1.00;;;;;;5128546;27;20223;-56
2021/07/31 04:30:32;;;;;;;5.47;4.97;;;23.30;1.00;;;;;;5108601;27;20185;-56
2021/07/31 04:32:57;;;;;;;7.40;5.27;;;23.30;1.00;;;;;;5106715;27;20453;-56
2021/07/31 04:35:23;;;;;;;5.17;4.77;;;23.20;1.00;;;;;;5138520;27;20923;-57
2021/07/31 04:37:49;;;;;;;7.03;5.40;;;23.20;1.00;;;;;;5133020;27;20185;-56
2021/07/31 04:40:14;;;;;;;5.80;4.97;;;23.30;1.00;;;;;;5132470;27;20870;-57
2021/07/31 04:42:40;;;;;;;6.10;5.47;;;23.40;1.00;;;;;;5128763;27;20182;-57
2021/07/31 04:45:06;;;;;;;5.33;4.90;;;23.40;1.00;;;;;;5132013;27;20221;-57
2021/07/31 04:47:39;;;;;;;6.10;5.50;;;23.40;1.00;;;;;;5112086;27;20262;-56
2021/07/31 04:50:06;;;;;;;5.70;5.20;;;23.40;1.00;;;;;;5130108;27;20434;-58
2021/07/31 04:52:32;;;;;;;6.57;4.97;;;23.40;1.00;;;;;;5127865;27;20455;-56
2021/07/31 04:54:57;;;;;;;5.37;4.87;;;23.30;1.00;;;;;;5128726;27;20443;-56
2021/07/31 04:57:22;;;;;;;5.50;5.00;;;23.30;1.00;;;;;;5126975;27;20254;-56
2021/07/31 04:59:48;;;;;;;5.50;5.00;;;23.40;1.00;;;;;;5127571;27;20222;-56
2021/07/31 05:02:13;;;;;;;5.23;4.67;;;23.40;1.00;;;;;;5131311;27;20676;-57
2021/07/31 05:04:39;;;;;;;7.97;4.40;;;23.30;1.00;;;;;;5129077;27;20186;-57
2021/07/31 05:07:04;;;;;;;4.60;4.13;;;23.30;1.00;;;;;;5131171;27;20197;-58
2021/07/31 05:09:30;;;;;;;5.20;4.70;;;23.20;1.00;;;;;;5131968;27;20193;-57
2021/07/31 05:11:55;;;;;;;4.77;4.33;;;23.10;1.00;;;;;;5130465;27;20673;-58
2021/07/31 05:14:21;;;;;;;5.13;4.63;;;23.20;1.00;;;;;;5130984;27;20185;-57
2021/07/31 05:16:47;;;;;;;4.60;4.20;;;23.20;1.00;;;;;;5132423;27;20185;-56
2021/07/31 05:19:12;;;;;;;5.70;4.10;;;23.10;1.00;;;;;;5112287;27;20538;-57
2021/07/31 05:21:38;;;;;;;5.70;4.97;;;23.10;1.00;;;;;;5111986;27;20650;-56
2021/07/31 05:24:06;;;;;;;4.97;4.27;;;23.20;1.00;;;;;;5131907;27;20748;-57
2021/07/31 05:26:32;;;;;;;4.30;3.80;;;23.30;1.00;;;;;;5125867;27;20288;-57
2021/07/31 05:28:57;;;;;;;5.10;4.10;;;23.20;1.00;;;;;;5130973;27;21061;-57
2021/07/31 05:31:23;;;;;;;5.10;4.60;;;23.30;1.00;;;;;;5130691;27;20275;-57
2021/07/31 05:33:49;;;;;;;4.47;3.93;;;23.30;1.00;;;;;;5129621;27;20169;-58
2021/07/31 05:36:15;;;;;;;3.90;3.60;;;23.40;1.00;;;;;;5114563;27;20658;-56
2021/07/31 05:38:41;;;;;;;5.77;3.70;;;23.40;1.00;;;;;;5132671;27;20450;-57
2021/07/31 05:41:12;;;;;;;4.30;3.90;;;23.30;1.00;;;;;;5130756;27;20208;-57
2021/07/31 05:43:38;;;;;;;5.73;3.80;;;23.40;1.00;;;;;;5128264;27;20453;-56
2021/07/31 05:46:03;;;;;;;3.60;3.30;;;23.30;1.00;;;;;;5127642;27;20466;-57
2021/07/31 05:48:29;;;;;;;7.03;3.60;;;23.20;1.00;;;;;;5111177;27;20727;-58
2021/07/31 05:50:54;;;;;;;3.57;3.00;;;23.30;1.00;;;;;;5129918;27;20185;-56
2021/07/31 05:53:20;;;;;;;4.53;3.37;;;23.40;1.00;;;;;;5131540;27;20212;-57
2021/07/31 05:55:46;;;;;;;4.47;3.20;;;23.30;1.00;;;;;;5130716;27;20211;-57
2021/07/31 05:58:11;;;;;;;3.90;3.03;;;23.40;1.00;;;;;;5130619;27;20935;-56
2021/07/31 06:00:37;;;;;;;3.67;3.37;;;23.20;1.00;;;;;;5130352;27;20210;-56
2021/07/31 06:03:02;;;;;;;2.97;2.67;;;23.40;1.00;;;;;;5130094;27;20642;-57
2021/07/31 06:05:28;;;;;;;4.00;2.80;;;23.40;1.00;;;;;;5129943;27;20226;-57
2021/07/31 06:07:53;;;;;;;5.00;3.30;;;23.30;1.00;;;;;;5125802;27;20223;-57
2021/07/31 06:10:19;;;;;;;4.87;3.03;;;23.40;1.00;;;;;;5129029;27;20177;-57
2021/07/31 06:12:45;;;;;;;4.27;3.17;;;23.50;1.00;;;;;;5109506;27;20178;-57
2021/07/31 06:15:11;;;;;;;5.20;3.53;;;23.50;1.00;;;;;;5127541;27;20217;-57
2021/07/31 06:17:36;;;;;;;3.83;3.53;;;23.60;1.00;;;;;;5126469;27;20528;-56
2021/07/31 06:20:03;;;;;;;6.70;3.47;;;23.60;1.00;;;;;;5127617;27;20709;-57
2021/07/31 06:22:29;;;;;;;3.80;3.40;;;23.70;1.00;;;;;;5130988;27;20182;-57
2021/07/31 06:24:54;;;;;;;3.43;2.90;;;23.90;1.00;;;;;;5129536;27;20853;-57
2021/07/31 06:27:20;;;;;;;4.30;3.90;;;24.00;1.00;;;;;;5130041;27;20201;-56
2021/07/31 06:29:45;;;;;;;2.90;2.60;;;24.10;1.00;;;;;;5128161;27;20689;-56
2021/07/31 06:32:11;;;;;;;3.03;2.67;;;23.90;1.00;;;;;;5125215;27;20177;-57
2021/07/31 06:34:36;;;;;;;3.97;2.90;;;23.90;1.00;;;;;;5110326;27;20538;-56
2021/07/31 06:37:02;;;;;;;4.70;2.40;;;24.10;1.00;;;;;;5130577;27;20185;-55
2021/07/31 06:39:27;;;;;;;3.43;2.23;;;24.50;1.00;;;;;;5129841;27;20264;-55
2021/07/31 06:41:53;;;;;;;3.80;2.57;;;24.60;1.00;;;;;;5130123;27;20177;-55
2021/07/31 06:44:18;;;;;;;4.67;2.53;;;24.40;1.00;;;;;;5129929;27;20193;-55
2021/07/31 06:46:44;;;;;;;2.83;2.33;;;24.50;1.00;;;;;;5134753;27;21469;-55
2021/07/31 06:49:09;;;;;;;5.30;2.60;;;24.50;1.00;;;;;;5129563;27;20268;-55
2021/07/31 06:51:37;;;;;;;6.40;2.17;;;24.20;1.00;;;;;;5132814;27;20196;-57
2021/07/31 06:54:03;;;;;;;2.67;1.77;;;24.10;1.00;;;;;;5132741;27;20173;-56
2021/07/31 06:56:29;;;;;;;3.77;2.37;;;24.00;1.00;;;;;;5144621;27;20445;-55
2021/07/31 06:58:54;;;;;;;2.70;2.20;;;24.00;1.00;;;;;;5138595;27;20177;-56
2021/07/31 07:01:20;;;;;;;3.50;2.00;;;24.00;1.00;;;;;;5127532;27;20186;-57
2021/07/31 07:03:47;;;;;;;3.07;2.07;;;24.00;1.00;;;;;;5131422;27;20181;-56
2021/07/31 07:06:13;;;;;;;2.37;1.77;;;24.00;1.00;;;;;;5112756;27;20212;-57
2021/07/31 07:08:38;;;;;;;2.40;2.10;;;24.20;1.00;;;;;;5130691;27;20434;-57
2021/07/31 07:11:05;;;;;;;4.70;2.00;;;24.30;1.00;;;;;;5130950;27;20177;-56
2021/07/31 07:13:31;;;;;;;2.53;2.03;;;24.40;1.00;;;;;;5139829;27;20190;-56
2021/07/31 07:15:57;;;;;;;6.17;1.80;;;24.50;1.00;;;;;;5128802;27;20443;-57
2021/07/31 07:18:22;;;;;;;3.17;1.63;;;24.50;1.00;;;;;;5142764;27;20445;-55
2021/07/31 07:20:48;;;;;;;3.70;1.33;;;24.50;1.00;;;;;;5130098;27;20193;-56
2021/07/31 07:23:15;;;;;;;2.97;1.70;;;24.50;1.00;;;;;;5128932;27;20177;-54
2021/07/31 07:25:42;;;;;;;2.00;1.60;;;24.30;1.00;;;;;;5130374;27;20435;-56
2021/07/31 07:28:08;;;;;;;4.50;1.93;;;24.50;1.00;;;;;;5131444;27;20495;-56
2021/07/31 07:30:33;;;;;;;6.50;1.93;;;24.60;1.00;;;;;;5130207;27;20434;-54
2021/07/31 07:33:00;;;;;;;1.90;1.70;;;24.80;1.00;;;;;;5128344;27;20177;-55
2021/07/31 07:35:25;;;;;;;4.30;1.83;;;24.70;1.00;;;;;;5129116;27;20264;-55
2021/07/31 07:37:51;;;;;;;2.20;1.60;;;24.60;1.00;;;;;;5129452;27;20518;-56
2021/07/31 07:40:16;;;;;;;2.53;1.37;;;24.50;1.00;;;;;;5125993;27;20636;-54
2021/07/31 07:42:42;;;;;;;1.60;1.40;;;24.50;1.00;;;;;;5126472;27;20791;-56
2021/07/31 07:45:08;;;;;;;2.60;1.50;;;24.60;1.00;;;;;;5131649;27;20260;-55
2021/07/31 07:47:35;;;;;;;3.40;1.60;;;24.60;1.00;;;;;;5127120;27;20343;-55
2021/07/31 07:50:01;;;;;;;2.80;1.70;;;24.80;1.00;;;;;;5128341;27;20450;-55
2021/07/31 07:52:26;;;;;;;4.03;1.43;;;25.00;1.00;;;;;;5109379;27;20466;-55
2021/07/31 07:54:52;;;;;;;4.03;1.30;;;24.80;1.00;;;;;;5131932;27;20786;-54
2021/07/31 07:57:17;;;;;;;2.50;1.20;;;24.70;1.00;;;;;;5131099;27;20649;-56
2021/07/31 07:59:43;;;;;;;1.50;1.27;;;24.70;1.00;;;;;;5130005;27;20207;-55
2021/07/31 08:02:09;;;;;;;3.53;1.20;;;24.70;1.00;;;;;;5128977;27;20193;-55
2021/07/31 08:04:34;;;;;;;1.87;1.10;;;25.10;1.00;;;;;;5128549;27;20182;-55
2021/07/31 08:07:00;;;;;;;3.80;1.37;;;25.20;1.00;;;;;;5133797;27;20204;-54
2021/07/31 08:09:26;;;;;;;3.70;1.63;;;25.10;1.00;;;;;;5136642;27;20250;-55
2021/07/31 08:11:52;;;;;;;2.93;1.50;;;25.00;1.00;;;;;;5132632;27;20499;-55
2021/07/31 08:14:18;;;;;;;2.70;1.67;;;24.90;1.00;;;;;;5135295;27;20256;-59
2021/07/31 08:16:43;;;;;;;3.00;1.77;;;25.00;1.00;;;;;;5133616;27;20218;-54
2021/07/31 08:19:10;;;;;;;2.47;1.40;;;25.00;1.00;;;;;;5134298;27;20665;-55
2021/07/31 08:21:37;;;;;;;5.27;1.60;;;25.30;1.00;;;;;;5130993;27;20226;-56
2021/07/31 08:24:03;;;;;;;2.67;1.50;;;25.60;1.00;;;;;;5115745;27;20450;-54
2021/07/31 08:26:28;;;;;;;3.07;1.53;;;25.40;1.00;;;;;;5132346;27;20454;-55
2021/07/31 08:28:54;;;;;;;5.83;1.73;;;25.10;1.00;;;;;;5132893;27;20451;-56
2021/07/31 08:31:19;;;;;;;3.13;1.60;;;25.00;1.00;;;;;;5131647;27;20634;-55
2021/07/31 08:33:45;;;;;;;3.43;1.60;;;25.00;1.00;;;;;;5131709;27;20182;-55
2021/07/31 08:36:11;;;;;;;3.67;1.77;;;25.10;1.00;;;;;;5133203;27;20184;-55
2021/07/31 08:38:37;;;;;;;1.67;1.30;;;25.10;1.00;;;;;;5133279;27;20443;-55
2021/07/31 08:41:04;;;;;;;3.40;1.30;;;25.10;1.00;;;;;;5136390;27;20189;-55
2021/07/31 08:43:30;;;;;;;3.87;1.70;;;25.00;1.00;;;;;;5130965;27;20181;-54
2021/07/31 08:45:56;;;;;;;3.50;2.10;;;24.80;1.00;;;;;;5131191;27;20800;-56
2021/07/31 08:48:27;;;;;;;2.50;1.40;;;25.00;1.00;;;;;;5131763;27;20442;-55
2021/07/31 08:50:57;;;;;;;4.90;1.90;;;25.20;1.00;;;;;;5130184;27;20288;-54
2021/07/31 08:53:28;;;;;;;3.60;1.47;;;25.20;1.00;;;;;;5133707;27;20463;-54
2021/07/31 08:55:55;;;;;;;4.80;1.60;;;25.40;1.00;;;;;;5134151;27;20452;-55
2021/07/31 08:58:23;;;;;;;2.33;1.60;;;25.40;1.00;;;;;;5134035;27;20596;-54
2021/07/31 09:00:49;;;;;;;5.00;1.40;;;25.40;1.00;;;;;;5132997;27;20489;-55
2021/07/31 09:03:15;;;;;;;1.90;1.43;;;25.60;1.00;;;;;;5130104;27;20522;-55
2021/07/31 09:05:42;;;;;;;3.20;1.50;;;25.90;1.00;;;;;;5131189;27;20522;-54
2021/07/31 09:08:08;;;;;;;2.33;1.43;;;25.80;1.00;;;;;;5133445;27;20798;-55
2021/07/31 09:10:37;;;;;;;1.77;1.67;;;25.90;1.00;;;;;;5132539;27;20442;-54
2021/07/31 09:13:07;;;;;;;4.27;1.70;;;26.10;1.00;;;;;;5132726;27;20517;-54
2021/07/31 09:15:43;;;;;;;2.97;1.97;;;26.50;1.00;;;;;;5132845;27;20427;-55
2021/07/31 09:18:31;;;;;;;5.33;1.37;;;26.30;1.00;;;;;;5129314;27;20444;-54
2021/07/31 09:20:59;;;;;;;6.83;2.20;;;25.90;1.00;;;;;;5132586;27;20470;-54
2021/07/31 09:23:43;;;;;;;4.30;2.17;;;25.90;1.00;;;;;;5131977;27;20427;-56
2021/07/31 09:26:10;;;;;;;3.30;1.57;;;26.20;1.00;;;;;;5128383;27;20454;-54
2021/07/31 09:28:40;;;;;;;3.00;1.53;;;26.60;1.00;;;;;;5132755;27;20531;-54
2021/07/31 09:31:06;;;;;;;4.83;1.67;;;26.80;1.00;;;;;;5129345;27;20440;-55
2021/07/31 09:33:32;;;;;;;2.90;1.80;;;27.10;1.00;;;;;;5129844;27;20431;-55
2021/07/31 09:36:03;;;;;;;3.07;1.83;;;27.00;1.00;;;;;;5139428;27;20434;-54
2021/07/31 09:38:36;;;;;;;2.40;1.70;;;26.70;1.00;;;;;;5132326;27;20200;-55
2021/07/31 09:41:26;;;;;;;7.37;4.17;;;26.70;1.00;;;;;;5131454;27;20439;-55
2021/07/31 09:44:18;;;;;;;4.77;3.00;;;26.60;1.00;;;;;;5131421;27;20434;-55
2021/07/31 09:46:50;;;;;;;3.70;2.33;;;26.80;1.00;;;;;;5108558;27;20468;-55
2021/07/31 09:49:21;;;;;;;2.40;1.90;;;26.80;1.00;;;;;;5127362;27;20527;-55
2021/07/31 09:51:49;;;;;;;4.47;1.73;;;26.90;1.00;;;;;;5133498;27;20512;-55
2021/07/31 09:54:20;;;;;;;2.33;1.63;;;27.10;1.00;;;;;;5129586;27;20435;-54
2021/07/31 09:56:50;;;;;;;3.10;1.80;;;27.20;1.00;;;;;;5131379;27;20446;-55
2021/07/31 09:59:18;;;;;;;1.90;1.50;;;27.50;1.00;;;;;;5132761;27;20449;-56
2021/07/31 10:02:03;;;;;;;2.70;2.00;;;27.50;1.00;;;;;;5139034;27;20438;-55
2021/07/31 10:04:32;;;;;;;3.23;1.93;;;27.30;1.00;;;;;;5134790;27;20923;-56
2021/07/31 10:07:04;;;;;;;3.17;1.87;;;27.30;1.00;;;;;;5130373;27;20951;-55
2021/07/31 10:09:31;;;;;;;2.23;1.80;;;27.30;1.00;;;;;;5129670;27;20438;-55
2021/07/31 10:11:57;;;;;;;1.90;1.70;;;27.20;1.00;;;;;;5132551;27;20571;-54
2021/07/31 10:14:23;;;;;;;1.93;1.40;;;27.10;1.00;;;;;;5131801;27;20462;-54
2021/07/31 10:16:49;;;;;;;3.27;1.67;;;27.20;1.00;;;;;;5130672;27;20967;-54
2021/07/31 10:19:16;;;;;;;2.40;1.67;;;27.30;1.00;;;;;;5132379;27;20431;-55
2021/07/31 10:21:55;;;;;;;2.87;1.67;;;27.30;1.00;;;;;;5114362;27;20487;-55
2021/07/31 10:24:21;;;;;;;2.10;1.80;;;27.20;1.00;;;;;;5113440;27;20507;-54
2021/07/31 10:27:14;;;;;;;3.17;1.70;;;27.10;1.00;;;;;;5130744;27;20463;-55
2021/07/31 10:29:43;;;;;;;3.00;2.00;;;27.30;1.00;;;;;;5133951;27;20177;-55
2021/07/31 10:32:21;;;;;;;2.90;1.50;;;27.40;1.00;;;;;;5119007;27;20796;-53
2021/07/31 10:34:56;;;;;;;3.17;1.50;;;27.50;1.00;;;;;;5122607;27;20934;-55
2021/07/31 10:37:39;;;;;;;2.07;1.70;;;27.40;1.00;;;;;;5142612;27;20488;-54
2021/07/31 10:40:06;;;;;;;1.93;1.53;;;27.20;1.00;;;;;;5137048;27;20439;-55
2021/07/31 10:42:47;;;;;;;3.50;1.50;;;27.00;1.00;;;;;;5132382;27;20514;-55
2021/07/31 10:45:17;;;;;;;2.60;1.37;;;27.10;1.00;;;;;;5125813;27;20451;-55
2021/07/31 10:47:44;;;;;;;3.27;1.00;;;26.90;1.00;;;;;;5128617;27;21198;-55
2021/07/31 10:50:27;;;;;;;3.07;1.53;;;26.70;1.00;;;;;;5132453;27;20434;-55
2021/07/31 10:53:02;;;;;;;5.17;1.30;;;26.80;1.00;;;;;;5126104;27;20517;-55
2021/07/31 10:55:37;;;;;;;2.30;1.30;;;27.00;1.00;;;;;;5127857;27;20538;-55
2021/07/31 10:58:19;;;;;;;3.30;1.77;;;27.00;1.00;;;;;;5130853;27;20834;-55
2021/07/31 11:00:48;;;;;;;2.23;1.60;;;27.10;1.00;;;;;;5131874;27;20449;-54
2021/07/31 11:03:23;;;;;;;2.83;1.23;;;27.40;1.00;;;;;;5129931;27;20443;-55
2021/07/31 11:05:49;;;;;;;2.10;1.20;;;27.60;1.00;;;;;;5127292;27;21007;-54
2021/07/31 11:08:18;;;;;;;2.20;1.77;;;27.60;1.00;;;;;;5126347;27;20447;-54
2021/07/31 11:10:45;;;;;;;2.87;1.53;;;27.30;1.00;;;;;;5129041;27;20208;-55
2021/07/31 11:13:18;;;;;;;1.90;1.07;;;27.10;1.00;;;;;;5129909;27;20533;-55
2021/07/31 11:15:56;;;;;;;3.90;1.67;;;27.00;1.00;;;;;;5129772;27;20507;-54
2021/07/31 11:18:26;;;;;;;1.50;1.40;;;27.10;1.00;;;;;;5132034;27;20961;-55
2021/07/31 11:20:52;;;;;;;1.97;1.37;;;27.00;1.00;;;;;;5129261;27;20435;-55
2021/07/31 11:23:19;;;;;;;1.57;1.40;;;27.20;1.00;;;;;;5130093;27;20519;-56
2021/07/31 11:25:46;;;;;;;2.87;1.77;;;27.50;1.00;;;;;;5129254;27;20458;-55
2021/07/31 11:28:12;;;;;;;3.20;1.53;;;27.50;1.00;;;;;;5128396;27;20443;-55
2021/07/31 11:30:46;;;;;;;2.30;1.20;;;27.40;1.00;;;;;;5129092;27;20431;-55
2021/07/31 11:33:21;;;;;;;4.43;1.27;;;27.10;1.00;;;;;;5130948;27;20863;-55
2021/07/31 11:35:49;;;;;;;1.83;1.40;;;27.00;1.00;;;;;;5130285;27;20577;-54
2021/07/31 11:38:36;;;;;;;1.67;1.43;;;27.20;1.00;;;;;;5130773;27;20510;-55
2021/07/31 11:41:11;;;;;;;1.80;1.10;;;27.30;1.00;;;;;;5128232;27;20463;-54
2021/07/31 11:43:50;;;;;;;2.83;1.43;;;27.50;1.00;;;;;;5111303;27;20431;-55
2021/07/31 11:46:46;;;;;;;2.10;1.30;;;27.30;1.00;;;;;;5130956;27;20447;-54
2021/07/31 11:49:33;;;;;;;1.80;1.40;;;27.10;1.00;;;;;;5118831;27;20434;-54
2021/07/31 11:52:03;;;;;;;2.30;1.40;;;27.20;1.00;;;;;;5126760;27;20458;-55
2021/07/31 11:54:30;;;;;;;1.50;1.20;;;27.20;1.00;;;;;;5135452;27;20773;-55
2021/07/31 11:56:57;;;;;;;1.67;1.10;;;27.40;1.00;;;;;;5131379;27;20444;-55
2021/07/31 11:59:31;;;;;;;1.37;1.27;;;27.70;1.00;;;;;;5129989;27;20928;-54
2021/07/31 12:01:57;;;;;;;4.00;1.40;;;28.00;1.00;;;;;;5130771;27;20427;-55
2021/07/31 12:04:45;;;;;;;2.67;1.47;;;27.90;1.00;;;;;;5129826;27;20891;-55
2021/07/31 12:07:21;;;;;;;2.27;1.50;;;28.00;1.00;;;;;;5130938;27;20516;-56
2021/07/31 12:10:13;;;;;;;2.77;1.30;;;28.00;1.00;;;;;;5130963;27;20490;-54
2021/07/31 12:12:41;;;;;;;1.20;1.10;;;28.20;1.00;;;;;;5130651;27;21012;-56
2021/07/31 12:15:24;;;;;;;2.10;1.37;;;27.90;1.00;;;;;;5129948;27;20828;-54
2021/07/31 12:18:06;;;;;;;3.93;1.50;;;28.00;1.00;;;;;;5112325;27;20439;-54
2021/07/31 12:20:42;;;;;;;2.73;1.40;;;28.40;1.00;;;;;;5130935;27;20511;-55
2021/07/31 12:23:09;;;;;;;1.63;1.40;;;28.40;1.00;;;;;;5130168;27;20516;-54
2021/07/31 12:25:37;;;;;;;3.20;1.60;;;28.60;1.00;;;;;;5130729;27;20442;-56
2021/07/31 12:28:10;;;;;;;2.50;1.37;;;28.50;1.00;;;;;;5128927;27;20442;-55
2021/07/31 12:30:39;;;;;;;3.57;1.53;;;28.10;1.00;;;;;;5129902;27;20439;-55
2021/07/31 12:33:07;;;;;;;4.17;1.40;;;28.30;1.00;;;;;;5127140;27;20541;-54
2021/07/31 12:35:34;;;;;;;4.03;1.37;;;28.00;1.00;;;;;;5130759;27;20433;-55
2021/07/31 12:37:59;;;;;;;3.93;1.67;;;28.00;1.00;;;;;;5128893;27;20528;-55
2021/07/31 12:40:25;;;;;;;2.40;1.50;;;28.20;1.00;;;;;;5125997;27;20443;-54
2021/07/31 12:42:50;;;;;;;2.00;1.40;;;28.40;1.00;;;;;;5130347;27;20983;-55
2021/07/31 12:45:17;;;;;;;1.43;1.33;;;28.10;1.00;;;;;;5129988;27;20181;-54
2021/07/31 12:47:42;;;;;;;1.93;1.50;;;27.90;1.00;;;;;;5148852;27;20197;-55
2021/07/31 12:50:08;;;;;;;2.07;1.40;;;28.00;1.00;;;;;;5137537;27;20521;-55
2021/07/31 12:52:33;;;;;;;2.73;1.27;;;28.10;1.00;;;;;;5130241;27;20213;-56
2021/07/31 12:54:59;;;;;;;2.50;1.70;;;28.00;1.00;;;;;;5113928;27;20231;-55
2021/07/31 12:57:24;;;;;;;2.43;1.30;;;27.90;1.00;;;;;;5133796;27;20614;-55
2021/07/31 12:59:50;;;;;;;1.67;1.27;;;27.80;1.00;;;;;;5134195;27;20587;-55